sensor_id;sensor_type;location;lat;lon;timestamp;temperature;humidity
46117;DHT22;32591;48.102;11.772;2022-10-31T00:00:48;11.60;99.90
46117;DHT22;32591;48.102;11.772;2022-10-31T00:03:15;11.50;99.90
46117;DHT22;32591;48.102;11.772;2022-10-31T00:05:43;11.50;99.90
46117;DHT22;32591;48.102;11.772;2022-10-31T00:08:12;11.50;99.90
46117;DHT22;32591;48.102;11.772;2022-10-31T00:10:39;11.50;99.90
46117;DHT22;32591;48.102;11.772;2022-10-31T00:13:07;11.50;99.90
46117;DHT22;32591;48.102;11.772;2022-10-31T00:15:35;11.40;99.90
46117;DHT22;32591;48.102;11.772;2022-10-31T00:18:05;11.40;99.90
46117;DHT22;32591;48.102;11.772;2022-10-31T00:20:32;11.40;99.90
46117;DHT22;32591;48.102;11.772;2022-10-31T00:23:00;11.40;99.90
46117;DHT22;32591;48.102;11.772;2022-10-31T00:25:32;11.40;99.90
46117;DHT22;32591;48.102;11.772;2022-10-31T00:28:00;11.40;99.90
46117;DHT22;32591;48.102;11.772;2022-10-31T00:30:27;11.40;99.90
46117;DHT22;32591;48.102;11.772;2022-10-31T00:32:54;11.30;99.90
46117;DHT22;32591;48.102;11.772;2022-10-31T00:35:22;11.30;99.90
46117;DHT22;32591;48.102;11.772;2022-10-31T00:37:49;11.30;99.90
46117;DHT22;32591;48.102;11.772;2022-10-31T00:40:16;11.30;99.90
46117;DHT22;32591;48.102;11.772;2022-10-31T00:42:43;11.30;99.90
46117;DHT22;32591;48.102;11.772;2022-10-31T00:45:11;11.30;99.90
46117;DHT22;32591;48.102;11.772;2022-10-31T00:47:38;11.40;99.90
46117;DHT22;32591;48.102;11.772;2022-10-31T00:50:05;11.40;99.90
46117;DHT22;32591;48.102;11.772;2022-10-31T00:52:34;11.30;99.90
46117;DHT22;32591;48.102;11.772;2022-10-31T00:55:01;11.30;99.90
46117;DHT22;32591;48.102;11.772;2022-10-31T00:57:29;11.30;99.90
46117;DHT22;32591;48.102;11.772;2022-10-31T00:59:55;11.30;99.90
46117;DHT22;32591;48.102;11.772;2022-10-31T01:02:22;11.20;99.90
46117;DHT22;32591;48.102;11.772;2022-10-31T01:04:49;11.30;99.90
46117;DHT22;32591;48.102;11.772;2022-10-31T01:07:16;11.20;99.90
46117;DHT22;32591;48.102;11.772;2022-10-31T01:09:45;11.20;99.90
46117;DHT22;32591;48.102;11.772;2022-10-31T01:12:12;11.20;99.90
46117;DHT22;32591;48.102;11.772;2022-10-31T01:14:43;11.10;99.90
46117;DHT22;32591;48.102;11.772;2022-10-31T01:17:11;11.10;99.90
46117;DHT22;32591;48.102;11.772;2022-10-31T01:19:38;11.00;99.90
46117;DHT22;32591;48.102;11.772;2022-10-31T01:22:05;11.00;99.90
46117;DHT22;32591;48.102;11.772;2022-10-31T01:24:32;11.00;99.90
46117;DHT22;32591;48.102;11.772;2022-10-31T01:27:01;10.90;99.90
46117;DHT22;32591;48.102;11.772;2022-10-31T01:29:28;10.90;99.90
46117;DHT22;32591;48.102;11.772;2022-10-31T01:31:55;10.90;99.90
46117;DHT22;32591;48.102;11.772;2022-10-31T01:34:22;10.90;99.90
46117;DHT22;32591;48.102;11.772;2022-10-31T01:36:49;10.90;99.90
46117;DHT22;32591;48.102;11.772;2022-10-31T01:39:17;10.90;99.90
46117;DHT22;32591;48.102;11.772;2022-10-31T01:41:47;10.80;99.90
46117;DHT22;32591;48.102;11.772;2022-10-31T01:44:55;10.80;99.90
46117;DHT22;32591;48.102;11.772;2022-10-31T01:47:32;10.80;99.90
46117;DHT22;32591;48.102;11.772;2022-10-31T01:50:05;10.70;99.90
46117;DHT22;32591;48.102;11.772;2022-10-31T01:52:38;10.70;99.90
46117;DHT22;32591;48.102;11.772;2022-10-31T01:55:09;10.70;99.90
46117;DHT22;32591;48.102;11.772;2022-10-31T01:57:42;10.70;99.90
46117;DHT22;32591;48.102;11.772;2022-10-31T02:00:13;10.70;99.90
46117;DHT22;32591;48.102;11.772;2022-10-31T02:02:41;10.70;99.90
46117;DHT22;32591;48.102;11.772;2022-10-31T02:05:11;10.70;99.90
46117;DHT22;32591;48.102;11.772;2022-10-31T02:07:45;10.60;99.90
46117;DHT22;32591;48.102;11.772;2022-10-31T02:10:15;10.60;99.90
46117;DHT22;32591;48.102;11.772;2022-10-31T02:12:44;10.60;99.90
46117;DHT22;32591;48.102;11.772;2022-10-31T02:15:12;10.60;99.90
46117;DHT22;32591;48.102;11.772;2022-10-31T02:17:40;10.60;99.90
46117;DHT22;32591;48.102;11.772;2022-10-31T02:20:13;10.60;99.90
46117;DHT22;32591;48.102;11.772;2022-10-31T02:26:10;10.60;99.90
46117;DHT22;32591;48.102;11.772;2022-10-31T02:31:59;10.50;99.90
46117;DHT22;32591;48.102;11.772;2022-10-31T02:34:31;10.50;99.90
46117;DHT22;32591;48.102;11.772;2022-10-31T02:37:07;10.50;99.90
46117;DHT22;32591;48.102;11.772;2022-10-31T02:39:44;10.50;99.90
46117;DHT22;32591;48.102;11.772;2022-10-31T02:42:17;10.50;99.90
46117;DHT22;32591;48.102;11.772;2022-10-31T02:44:51;10.40;99.90
46117;DHT22;32591;48.102;11.772;2022-10-31T02:47:25;10.40;99.90
46117;DHT22;32591;48.102;11.772;2022-10-31T02:49:59;10.40;99.90
46117;DHT22;32591;48.102;11.772;2022-10-31T02:52:28;10.40;99.90
46117;DHT22;32591;48.102;11.772;2022-10-31T02:54:56;10.40;99.90
46117;DHT22;32591;48.102;11.772;2022-10-31T02:57:26;10.30;99.90
46117;DHT22;32591;48.102;11.772;2022-10-31T02:59:58;10.30;99.90
46117;DHT22;32591;48.102;11.772;2022-10-31T03:02:45;10.30;99.90
46117;DHT22;32591;48.102;11.772;2022-10-31T03:05:41;10.30;99.90
46117;DHT22;32591;48.102;11.772;2022-10-31T03:08:21;10.30;99.90
46117;DHT22;32591;48.102;11.772;2022-10-31T03:10:54;10.30;99.90
46117;DHT22;32591;48.102;11.772;2022-10-31T03:13:31;10.30;99.90
46117;DHT22;32591;48.102;11.772;2022-10-31T03:16:08;10.30;99.90
46117;DHT22;32591;48.102;11.772;2022-10-31T03:18:40;10.30;99.90
46117;DHT22;32591;48.102;11.772;2022-10-31T03:21:12;10.20;99.90
46117;DHT22;32591;48.102;11.772;2022-10-31T03:23:42;10.20;99.90
46117;DHT22;32591;48.102;11.772;2022-10-31T03:26:12;10.20;99.90
46117;DHT22;32591;48.102;11.772;2022-10-31T03:28:45;10.20;99.90
46117;DHT22;32591;48.102;11.772;2022-10-31T03:31:17;10.10;99.90
46117;DHT22;32591;48.102;11.772;2022-10-31T03:33:48;10.10;99.90
46117;DHT22;32591;48.102;11.772;2022-10-31T03:36:17;10.10;99.90
46117;DHT22;32591;48.102;11.772;2022-10-31T03:38:46;10.10;99.90
46117;DHT22;32591;48.102;11.772;2022-10-31T03:41:17;10.00;99.90
46117;DHT22;32591;48.102;11.772;2022-10-31T03:43:51;10.00;99.90
46117;DHT22;32591;48.102;11.772;2022-10-31T03:46:19;10.00;99.90
46117;DHT22;32591;48.102;11.772;2022-10-31T03:48:48;10.00;99.90
46117;DHT22;32591;48.102;11.772;2022-10-31T03:51:22;10.00;99.90
46117;DHT22;32591;48.102;11.772;2022-10-31T03:53:55;10.00;99.90
46117;DHT22;32591;48.102;11.772;2022-10-31T03:56:29;10.00;99.90
46117;DHT22;32591;48.102;11.772;2022-10-31T03:59:03;10.00;99.90
46117;DHT22;32591;48.102;11.772;2022-10-31T04:01:34;9.90;99.90
46117;DHT22;32591;48.102;11.772;2022-10-31T04:04:06;9.90;99.90
46117;DHT22;32591;48.102;11.772;2022-10-31T04:06:35;9.90;99.90
46117;DHT22;32591;48.102;11.772;2022-10-31T04:09:05;9.90;99.90
46117;DHT22;32591;48.102;11.772;2022-10-31T04:11:35;9.90;99.90
46117;DHT22;32591;48.102;11.772;2022-10-31T04:14:04;9.80;99.90
46117;DHT22;32591;48.102;11.772;2022-10-31T04:16:32;9.80;99.90
46117;DHT22;32591;48.102;11.772;2022-10-31T04:18:59;9.80;99.90
46117;DHT22;32591;48.102;11.772;2022-10-31T04:21:29;9.90;99.90
46117;DHT22;32591;48.102;11.772;2022-10-31T04:23:56;9.80;99.90
46117;DHT22;32591;48.102;11.772;2022-10-31T04:26:24;9.70;99.90
46117;DHT22;32591;48.102;11.772;2022-10-31T04:28:51;9.80;99.90
46117;DHT22;32591;48.102;11.772;2022-10-31T04:31:18;9.70;99.90
46117;DHT22;32591;48.102;11.772;2022-10-31T04:33:45;9.70;99.90
46117;DHT22;32591;48.102;11.772;2022-10-31T04:36:12;9.60;99.90
46117;DHT22;32591;48.102;11.772;2022-10-31T04:38:41;9.60;99.90
46117;DHT22;32591;48.102;11.772;2022-10-31T04:41:08;9.60;99.90
46117;DHT22;32591;48.102;11.772;2022-10-31T04:43:35;9.50;99.90
46117;DHT22;32591;48.102;11.772;2022-10-31T04:46:02;9.40;99.90
46117;DHT22;32591;48.102;11.772;2022-10-31T04:48:29;9.40;99.90
46117;DHT22;32591;48.102;11.772;2022-10-31T04:50:59;9.40;99.90
46117;DHT22;32591;48.102;11.772;2022-10-31T04:53:26;9.50;99.90
46117;DHT22;32591;48.102;11.772;2022-10-31T04:55:57;9.50;99.90
46117;DHT22;32591;48.102;11.772;2022-10-31T04:58:24;9.40;99.90
46117;DHT22;32591;48.102;11.772;2022-10-31T05:00:52;9.50;99.90
46117;DHT22;32591;48.102;11.772;2022-10-31T05:03:19;9.40;99.90
46117;DHT22;32591;48.102;11.772;2022-10-31T05:05:46;9.40;99.90
46117;DHT22;32591;48.102;11.772;2022-10-31T05:08:13;9.40;99.90
46117;DHT22;32591;48.102;11.772;2022-10-31T05:10:40;9.40;99.90
46117;DHT22;32591;48.102;11.772;2022-10-31T05:13:09;9.50;99.90
46117;DHT22;32591;48.102;11.772;2022-10-31T05:15:36;9.40;99.90
46117;DHT22;32591;48.102;11.772;2022-10-31T05:18:03;9.40;99.90
46117;DHT22;32591;48.102;11.772;2022-10-31T05:20:31;9.40;99.90
46117;DHT22;32591;48.102;11.772;2022-10-31T05:22:58;9.30;99.90
46117;DHT22;32591;48.102;11.772;2022-10-31T05:25:27;9.30;99.90
46117;DHT22;32591;48.102;11.772;2022-10-31T05:27:56;9.30;99.90
46117;DHT22;32591;48.102;11.772;2022-10-31T05:30:26;9.30;99.90
46117;DHT22;32591;48.102;11.772;2022-10-31T05:32:55;9.30;99.90
46117;DHT22;32591;48.102;11.772;2022-10-31T05:35:24;9.20;99.90
46117;DHT22;32591;48.102;11.772;2022-10-31T05:37:52;9.40;99.90
46117;DHT22;32591;48.102;11.772;2022-10-31T05:40:20;9.20;99.90
46117;DHT22;32591;48.102;11.772;2022-10-31T05:42:51;9.20;99.90
46117;DHT22;32591;48.102;11.772;2022-10-31T05:45:19;9.20;99.90
46117;DHT22;32591;48.102;11.772;2022-10-31T05:47:52;9.10;99.90
46117;DHT22;32591;48.102;11.772;2022-10-31T05:50:19;9.10;99.90
46117;DHT22;32591;48.102;11.772;2022-10-31T05:52:47;9.00;99.90
46117;DHT22;32591;48.102;11.772;2022-10-31T05:55:14;9.00;99.90
46117;DHT22;32591;48.102;11.772;2022-10-31T05:57:41;9.10;99.90
46117;DHT22;32591;48.102;11.772;2022-10-31T06:00:09;9.10;99.90
46117;DHT22;32591;48.102;11.772;2022-10-31T06:02:36;9.00;99.90
46117;DHT22;32591;48.102;11.772;2022-10-31T06:05:05;9.00;99.90
46117;DHT22;32591;48.102;11.772;2022-10-31T06:07:32;9.00;99.90
46117;DHT22;32591;48.102;11.772;2022-10-31T06:10:01;9.00;99.90
46117;DHT22;32591;48.102;11.772;2022-10-31T06:12:28;9.00;99.90
46117;DHT22;32591;48.102;11.772;2022-10-31T06:14:55;9.10;99.90
46117;DHT22;32591;48.102;11.772;2022-10-31T06:17:22;9.10;99.90
46117;DHT22;32591;48.102;11.772;2022-10-31T06:19:49;9.10;99.90
46117;DHT22;32591;48.102;11.772;2022-10-31T06:22:18;9.10;99.90
46117;DHT22;32591;48.102;11.772;2022-10-31T06:24:45;9.10;99.90
46117;DHT22;32591;48.102;11.772;2022-10-31T06:27:12;9.10;99.90
46117;DHT22;32591;48.102;11.772;2022-10-31T06:29:38;9.10;99.90
46117;DHT22;32591;48.102;11.772;2022-10-31T06:32:05;9.20;99.90
46117;DHT22;32591;48.102;11.772;2022-10-31T06:34:32;9.20;99.90
46117;DHT22;32591;48.102;11.772;2022-10-31T06:36:59;9.20;99.90
46117;DHT22;32591;48.102;11.772;2022-10-31T06:39:28;9.20;99.90
46117;DHT22;32591;48.102;11.772;2022-10-31T06:41:54;9.30;99.90
46117;DHT22;32591;48.102;11.772;2022-10-31T06:44:21;9.30;99.90
46117;DHT22;32591;48.102;11.772;2022-10-31T06:46:48;9.30;99.90
46117;DHT22;32591;48.102;11.772;2022-10-31T06:49:15;9.40;99.90
46117;DHT22;32591;48.102;11.772;2022-10-31T06:51:42;9.40;99.90
46117;DHT22;32591;48.102;11.772;2022-10-31T06:54:09;9.50;99.90
46117;DHT22;32591;48.102;11.772;2022-10-31T06:56:38;9.60;99.90
46117;DHT22;32591;48.102;11.772;2022-10-31T06:59:05;9.60;99.90
46117;DHT22;32591;48.102;11.772;2022-10-31T07:01:32;9.70;99.90
46117;DHT22;32591;48.102;11.772;2022-10-31T07:03:59;9.70;99.90
46117;DHT22;32591;48.102;11.772;2022-10-31T07:06:26;9.80;99.90
46117;DHT22;32591;48.102;11.772;2022-10-31T07:08:53;9.90;99.90
46117;DHT22;32591;48.102;11.772;2022-10-31T07:11:20;9.90;99.90
46117;DHT22;32591;48.102;11.772;2022-10-31T07:13:48;10.00;99.90
46117;DHT22;32591;48.102;11.772;2022-10-31T07:16:15;10.10;99.90
46117;DHT22;32591;48.102;11.772;2022-10-31T07:18:42;10.20;99.90
46117;DHT22;32591;48.102;11.772;2022-10-31T07:21:09;10.30;99.90
46117;DHT22;32591;48.102;11.772;2022-10-31T07:23:36;10.40;99.90
46117;DHT22;32591;48.102;11.772;2022-10-31T07:26:04;10.50;99.90
46117;DHT22;32591;48.102;11.772;2022-10-31T07:28:31;10.60;99.90
46117;DHT22;32591;48.102;11.772;2022-10-31T07:30:59;10.70;99.90
46117;DHT22;32591;48.102;11.772;2022-10-31T07:33:26;10.80;99.90
46117;DHT22;32591;48.102;11.772;2022-10-31T07:35:53;10.90;99.90
46117;DHT22;32591;48.102;11.772;2022-10-31T07:38:20;11.00;99.90
46117;DHT22;32591;48.102;11.772;2022-10-31T07:40:50;11.10;99.90
46117;DHT22;32591;48.102;11.772;2022-10-31T07:43:18;11.30;99.90
46117;DHT22;32591;48.102;11.772;2022-10-31T07:45:49;11.40;99.90
46117;DHT22;32591;48.102;11.772;2022-10-31T07:48:19;11.50;99.90
46117;DHT22;32591;48.102;11.772;2022-10-31T07:50:46;11.60;99.90
46117;DHT22;32591;48.102;11.772;2022-10-31T07:53:14;11.80;99.90
46117;DHT22;32591;48.102;11.772;2022-10-31T07:55:42;12.00;99.90
46117;DHT22;32591;48.102;11.772;2022-10-31T07:58:11;12.10;99.90
46117;DHT22;32591;48.102;11.772;2022-10-31T08:00:41;12.30;99.90
46117;DHT22;32591;48.102;11.772;2022-10-31T08:03:11;12.40;99.90
46117;DHT22;32591;48.102;11.772;2022-10-31T08:05:41;12.50;99.90
46117;DHT22;32591;48.102;11.772;2022-10-31T08:08:12;12.70;99.90
46117;DHT22;32591;48.102;11.772;2022-10-31T08:10:40;12.80;99.90
46117;DHT22;32591;48.102;11.772;2022-10-31T08:13:08;12.90;99.90
46117;DHT22;32591;48.102;11.772;2022-10-31T08:15:37;13.10;99.90
46117;DHT22;32591;48.102;11.772;2022-10-31T08:18:11;13.20;99.90
46117;DHT22;32591;48.102;11.772;2022-10-31T08:20:40;13.40;99.90
46117;DHT22;32591;48.102;11.772;2022-10-31T08:23:09;13.60;99.90
46117;DHT22;32591;48.102;11.772;2022-10-31T08:25:37;13.60;99.90
46117;DHT22;32591;48.102;11.772;2022-10-31T08:28:05;13.70;99.90
46117;DHT22;32591;48.102;11.772;2022-10-31T08:30:34;13.80;99.90
46117;DHT22;32591;48.102;11.772;2022-10-31T08:33:03;14.00;99.90
46117;DHT22;32591;48.102;11.772;2022-10-31T08:35:32;14.00;99.90
46117;DHT22;32591;48.102;11.772;2022-10-31T08:38:01;14.20;99.90
46117;DHT22;32591;48.102;11.772;2022-10-31T08:40:30;14.30;99.90
46117;DHT22;32591;48.102;11.772;2022-10-31T08:42:58;14.40;99.90
46117;DHT22;32591;48.102;11.772;2022-10-31T08:45:26;14.50;99.90
46117;DHT22;32591;48.102;11.772;2022-10-31T08:47:57;14.60;99.90
46117;DHT22;32591;48.102;11.772;2022-10-31T08:50:25;14.80;99.90
46117;DHT22;32591;48.102;11.772;2022-10-31T08:52:52;15.00;99.90
46117;DHT22;32591;48.102;11.772;2022-10-31T08:55:21;15.10;99.90
46117;DHT22;32591;48.102;11.772;2022-10-31T08:57:48;15.20;99.90
46117;DHT22;32591;48.102;11.772;2022-10-31T09:00:15;15.20;99.90
46117;DHT22;32591;48.102;11.772;2022-10-31T09:02:42;15.30;99.90
46117;DHT22;32591;48.102;11.772;2022-10-31T09:05:09;15.40;99.90
46117;DHT22;32591;48.102;11.772;2022-10-31T09:07:36;15.60;99.90
46117;DHT22;32591;48.102;11.772;2022-10-31T09:10:03;15.60;99.90
46117;DHT22;32591;48.102;11.772;2022-10-31T09:12:32;15.70;99.90
46117;DHT22;32591;48.102;11.772;2022-10-31T09:14:58;15.90;99.90
46117;DHT22;32591;48.102;11.772;2022-10-31T09:17:26;16.10;99.90
46117;DHT22;32591;48.102;11.772;2022-10-31T09:19:54;16.30;99.90
46117;DHT22;32591;48.102;11.772;2022-10-31T09:22:22;16.30;99.90
46117;DHT22;32591;48.102;11.772;2022-10-31T09:24:49;16.50;99.90
46117;DHT22;32591;48.102;11.772;2022-10-31T09:27:16;16.50;99.90
46117;DHT22;32591;48.102;11.772;2022-10-31T09:29:45;16.60;99.90
46117;DHT22;32591;48.102;11.772;2022-10-31T09:32:12;16.60;99.90
46117;DHT22;32591;48.102;11.772;2022-10-31T09:34:38;16.60;99.90
46117;DHT22;32591;48.102;11.772;2022-10-31T09:37:05;16.50;99.90
46117;DHT22;32591;48.102;11.772;2022-10-31T09:39:32;16.60;99.90
46117;DHT22;32591;48.102;11.772;2022-10-31T09:42:15;16.60;99.90
46117;DHT22;32591;48.102;11.772;2022-10-31T09:44:59;16.70;99.90
46117;DHT22;32591;48.102;11.772;2022-10-31T09:47:40;16.90;99.90
46117;DHT22;32591;48.102;11.772;2022-10-31T09:50:18;17.00;99.90
46117;DHT22;32591;48.102;11.772;2022-10-31T09:52:54;17.20;99.90
46117;DHT22;32591;48.102;11.772;2022-10-31T09:55:31;17.20;99.90
46117;DHT22;32591;48.102;11.772;2022-10-31T09:58:02;17.30;99.90
46117;DHT22;32591;48.102;11.772;2022-10-31T10:00:31;17.50;99.90
46117;DHT22;32591;48.102;11.772;2022-10-31T10:03:06;17.70;99.90
46117;DHT22;32591;48.102;11.772;2022-10-31T10:05:43;17.80;99.90
46117;DHT22;32591;48.102;11.772;2022-10-31T10:08:18;17.80;99.90
46117;DHT22;32591;48.102;11.772;2022-10-31T10:10:49;17.80;99.90
46117;DHT22;32591;48.102;11.772;2022-10-31T10:13:30;17.90;99.90
46117;DHT22;32591;48.102;11.772;2022-10-31T10:16:15;17.80;99.90
46117;DHT22;32591;48.102;11.772;2022-10-31T10:19:00;17.80;99.90
46117;DHT22;32591;48.102;11.772;2022-10-31T10:21:41;17.90;99.90
46117;DHT22;32591;48.102;11.772;2022-10-31T10:24:21;17.90;99.90
46117;DHT22;32591;48.102;11.772;2022-10-31T10:26:59;18.00;99.90
46117;DHT22;32591;48.102;11.772;2022-10-31T10:29:34;18.00;99.90
46117;DHT22;32591;48.102;11.772;2022-10-31T10:32:11;18.00;99.90
46117;DHT22;32591;48.102;11.772;2022-10-31T10:34:46;17.90;99.90
46117;DHT22;32591;48.102;11.772;2022-10-31T10:37:23;17.90;99.90
46117;DHT22;32591;48.102;11.772;2022-10-31T10:39:55;17.90;99.90
46117;DHT22;32591;48.102;11.772;2022-10-31T10:42:25;18.00;99.90
46117;DHT22;32591;48.102;11.772;2022-10-31T10:45:15;18.00;99.90
46117;DHT22;32591;48.102;11.772;2022-10-31T10:48:07;18.00;99.90
46117;DHT22;32591;48.102;11.772;2022-10-31T10:50:44;18.00;99.90
46117;DHT22;32591;48.102;11.772;2022-10-31T10:53:39;17.90;99.90
46117;DHT22;32591;48.102;11.772;2022-10-31T10:56:34;17.90;99.90
46117;DHT22;32591;48.102;11.772;2022-10-31T10:59:06;17.90;99.90
46117;DHT22;32591;48.102;11.772;2022-10-31T11:01:38;17.80;99.90
46117;DHT22;32591;48.102;11.772;2022-10-31T11:04:24;17.80;99.90
46117;DHT22;32591;48.102;11.772;2022-10-31T11:07:01;17.80;99.90
46117;DHT22;32591;48.102;11.772;2022-10-31T11:09:30;17.80;99.90
46117;DHT22;32591;48.102;11.772;2022-10-31T11:11:58;17.80;99.90
46117;DHT22;32591;48.102;11.772;2022-10-31T11:14:26;17.80;99.90
46117;DHT22;32591;48.102;11.772;2022-10-31T11:16:55;17.80;99.90
46117;DHT22;32591;48.102;11.772;2022-10-31T11:19:36;17.80;99.90
46117;DHT22;32591;48.102;11.772;2022-10-31T11:22:07;17.80;99.90
46117;DHT22;32591;48.102;11.772;2022-10-31T11:24:39;18.00;99.90
46117;DHT22;32591;48.102;11.772;2022-10-31T11:27:15;18.30;99.90
46117;DHT22;32591;48.102;11.772;2022-10-31T11:29:44;18.60;99.90
46117;DHT22;32591;48.102;11.772;2022-10-31T11:32:20;18.70;99.90
46117;DHT22;32591;48.102;11.772;2022-10-31T11:34:52;18.70;99.90
46117;DHT22;32591;48.102;11.772;2022-10-31T11:37:22;18.50;99.90
46117;DHT22;32591;48.102;11.772;2022-10-31T11:39:53;18.50;99.90
46117;DHT22;32591;48.102;11.772;2022-10-31T11:42:22;18.60;99.90
46117;DHT22;32591;48.102;11.772;2022-10-31T11:44:53;18.70;99.90
46117;DHT22;32591;48.102;11.772;2022-10-31T11:47:26;18.70;99.60
46117;DHT22;32591;48.102;11.772;2022-10-31T11:49:57;18.70;99.70
46117;DHT22;32591;48.102;11.772;2022-10-31T11:52:27;18.70;99.90
46117;DHT22;32591;48.102;11.772;2022-10-31T11:54:58;18.80;99.70
46117;DHT22;32591;48.102;11.772;2022-10-31T11:57:28;18.80;99.60
46117;DHT22;32591;48.102;11.772;2022-10-31T11:59:57;18.90;99.40
46117;DHT22;32591;48.102;11.772;2022-10-31T12:02:26;19.00;99.60
46117;DHT22;32591;48.102;11.772;2022-10-31T12:05:01;19.10;99.50
46117;DHT22;32591;48.102;11.772;2022-10-31T12:07:31;19.20;99.40
46117;DHT22;32591;48.102;11.772;2022-10-31T12:09:58;19.40;98.50
46117;DHT22;32591;48.102;11.772;2022-10-31T12:12:41;19.50;98.70
46117;DHT22;32591;48.102;11.772;2022-10-31T12:15:31;19.60;98.90
46117;DHT22;32591;48.102;11.772;2022-10-31T12:18:23;19.60;98.80
46117;DHT22;32591;48.102;11.772;2022-10-31T12:21:14;19.60;98.50
46117;DHT22;32591;48.102;11.772;2022-10-31T12:23:58;19.50;98.90
46117;DHT22;32591;48.102;11.772;2022-10-31T12:26:36;19.60;99.00
46117;DHT22;32591;48.102;11.772;2022-10-31T12:29:17;19.70;98.40
46117;DHT22;32591;48.102;11.772;2022-10-31T12:32:04;19.60;98.40
46117;DHT22;32591;48.102;11.772;2022-10-31T12:35:08;19.50;98.60
46117;DHT22;32591;48.102;11.772;2022-10-31T12:37:56;19.40;99.40
46117;DHT22;32591;48.102;11.772;2022-10-31T12:40:53;19.30;99.40
46117;DHT22;32591;48.102;11.772;2022-10-31T12:43:37;19.10;99.10
46117;DHT22;32591;48.102;11.772;2022-10-31T12:46:14;19.10;99.30
46117;DHT22;32591;48.102;11.772;2022-10-31T12:51:50;19.10;99.80
46117;DHT22;32591;48.102;11.772;2022-10-31T12:54:47;19.10;99.50
46117;DHT22;32591;48.102;11.772;2022-10-31T12:57:24;19.10;99.90
46117;DHT22;32591;48.102;11.772;2022-10-31T12:59:59;19.20;99.90
46117;DHT22;32591;48.102;11.772;2022-10-31T13:02:32;19.20;99.90
46117;DHT22;32591;48.102;11.772;2022-10-31T13:05:04;19.20;99.90
46117;DHT22;32591;48.102;11.772;2022-10-31T13:07:42;19.20;99.90
46117;DHT22;32591;48.102;11.772;2022-10-31T13:10:19;19.30;99.90
46117;DHT22;32591;48.102;11.772;2022-10-31T13:12:50;19.20;99.90
46117;DHT22;32591;48.102;11.772;2022-10-31T13:15:21;19.20;99.90
46117;DHT22;32591;48.102;11.772;2022-10-31T13:17:53;19.30;99.90
46117;DHT22;32591;48.102;11.772;2022-10-31T13:20:27;19.40;99.90
46117;DHT22;32591;48.102;11.772;2022-10-31T13:22:59;19.60;99.90
46117;DHT22;32591;48.102;11.772;2022-10-31T13:25:38;19.60;99.90
46117;DHT22;32591;48.102;11.772;2022-10-31T13:28:15;19.60;99.80
46117;DHT22;32591;48.102;11.772;2022-10-31T13:30:51;19.40;99.90
46117;DHT22;32591;48.102;11.772;2022-10-31T13:33:22;19.30;99.90
46117;DHT22;32591;48.102;11.772;2022-10-31T13:35:57;19.30;99.90
46117;DHT22;32591;48.102;11.772;2022-10-31T13:38:38;19.30;99.90
46117;DHT22;32591;48.102;11.772;2022-10-31T13:41:15;19.50;99.90
46117;DHT22;32591;48.102;11.772;2022-10-31T13:43:59;19.50;99.90
46117;DHT22;32591;48.102;11.772;2022-10-31T13:46:36;19.40;99.90
46117;DHT22;32591;48.102;11.772;2022-10-31T13:49:18;19.40;99.90
46117;DHT22;32591;48.102;11.772;2022-10-31T13:51:51;19.60;99.90
46117;DHT22;32591;48.102;11.772;2022-10-31T13:54:22;19.60;99.90
46117;DHT22;32591;48.102;11.772;2022-10-31T13:56:59;19.60;99.90
46117;DHT22;32591;48.102;11.772;2022-10-31T13:59:27;19.50;99.90
46117;DHT22;32591;48.102;11.772;2022-10-31T14:01:58;19.40;99.90
46117;DHT22;32591;48.102;11.772;2022-10-31T14:04:29;19.30;99.90
46117;DHT22;32591;48.102;11.772;2022-10-31T14:07:05;19.30;99.90
46117;DHT22;32591;48.102;11.772;2022-10-31T14:09:34;19.40;99.90
46117;DHT22;32591;48.102;11.772;2022-10-31T14:12:07;19.30;99.90
46117;DHT22;32591;48.102;11.772;2022-10-31T14:14:53;19.20;99.90
46117;DHT22;32591;48.102;11.772;2022-10-31T14:17:23;19.10;99.90
46117;DHT22;32591;48.102;11.772;2022-10-31T14:20:34;19.00;99.90
46117;DHT22;32591;48.102;11.772;2022-10-31T14:29:22;19.10;99.90
46117;DHT22;32591;48.102;11.772;2022-10-31T14:32:04;19.10;99.90
46117;DHT22;32591;48.102;11.772;2022-10-31T14:34:38;19.20;99.90
46117;DHT22;32591;48.102;11.772;2022-10-31T14:37:24;19.40;99.90
46117;DHT22;32591;48.102;11.772;2022-10-31T14:40:08;19.60;99.90
46117;DHT22;32591;48.102;11.772;2022-10-31T14:42:56;19.60;99.90
46117;DHT22;32591;48.102;11.772;2022-10-31T14:45:49;19.60;99.90
46117;DHT22;32591;48.102;11.772;2022-10-31T14:51:45;19.60;99.90
46117;DHT22;32591;48.102;11.772;2022-10-31T14:54:15;19.70;99.90
46117;DHT22;32591;48.102;11.772;2022-10-31T14:56:49;19.80;99.90
46117;DHT22;32591;48.102;11.772;2022-10-31T14:59:20;19.90;99.90
46117;DHT22;32591;48.102;11.772;2022-10-31T15:01:56;20.10;99.90
46117;DHT22;32591;48.102;11.772;2022-10-31T15:04:27;20.20;99.90
46117;DHT22;32591;48.102;11.772;2022-10-31T15:07:00;20.00;99.90
46117;DHT22;32591;48.102;11.772;2022-10-31T15:09:32;19.90;99.90
46117;DHT22;32591;48.102;11.772;2022-10-31T15:12:01;19.70;99.90
46117;DHT22;32591;48.102;11.772;2022-10-31T15:14:43;19.60;99.90
46117;DHT22;32591;48.102;11.772;2022-10-31T15:17:12;19.50;99.90
46117;DHT22;32591;48.102;11.772;2022-10-31T15:19:39;19.50;99.90
46117;DHT22;32591;48.102;11.772;2022-10-31T15:22:09;19.60;99.90
46117;DHT22;32591;48.102;11.772;2022-10-31T15:24:40;19.70;99.90
46117;DHT22;32591;48.102;11.772;2022-10-31T15:27:12;19.80;99.90
46117;DHT22;32591;48.102;11.772;2022-10-31T15:29:48;19.70;99.90
46117;DHT22;32591;48.102;11.772;2022-10-31T15:32:20;19.70;99.90
46117;DHT22;32591;48.102;11.772;2022-10-31T15:34:49;19.60;99.90
46117;DHT22;32591;48.102;11.772;2022-10-31T15:37:19;19.40;99.90
46117;DHT22;32591;48.102;11.772;2022-10-31T15:39:49;19.30;99.90
46117;DHT22;32591;48.102;11.772;2022-10-31T15:42:22;19.20;99.90
46117;DHT22;32591;48.102;11.772;2022-10-31T15:44:56;19.20;99.90
46117;DHT22;32591;48.102;11.772;2022-10-31T15:47:29;19.20;99.90
46117;DHT22;32591;48.102;11.772;2022-10-31T15:49:59;19.10;99.90
46117;DHT22;32591;48.102;11.772;2022-10-31T15:52:31;19.00;99.90
46117;DHT22;32591;48.102;11.772;2022-10-31T15:55:04;18.90;99.90
46117;DHT22;32591;48.102;11.772;2022-10-31T15:57:44;18.90;99.90
46117;DHT22;32591;48.102;11.772;2022-10-31T16:00:23;18.80;99.90
46117;DHT22;32591;48.102;11.772;2022-10-31T16:03:06;18.60;99.90
46117;DHT22;32591;48.102;11.772;2022-10-31T16:05:37;18.50;99.90
46117;DHT22;32591;48.102;11.772;2022-10-31T16:08:25;18.50;99.90